Bolingbrook, Illinois
Current Conditions -  °F | °C
As of 5:55 PM on Friday 19 Dec 2014 (Local Time) from KLOT Reporting Station
Overcast Overcast  
Wind Chill: 31°   Ceiling: 2300
Heat Index: 31°   Visibility: 10mi
Dew Point: 24°   Wind: 3mph
Humidity: 75%   Direction: 310°NW
Pressure: 30.29"   Gusts: NA
Location:  41.7°N, 88.08°W
Report Text: KLOT 192355Z AUTO 31003KT 10SM OVC023 00/M04 A3029 RMK AO2 T10041043 10004 21004
Loading
Personal Weather Stations






























Interactive Weather Map New forecast layout! Learn more

10-Day Weather Forecast

Advertisements
Track Severe Weather on mobile